Time;durP1;ratioP1;P1;durP2;ratioP2;P2;SDS_P1;SDS_P2;PMS_P1;PMS_P2;Temp;Humidity;BMP_temperature;BMP_pressure;BME280_temperature;BME280_humidity;BME280_pressure;Samples;Min_cycle;Max_cycle;Signal;HPM_P1;HPM_P2
2023/08/22 00:00:52;;;;;;;11.13;6.93;;;16.80;99.90;;;;;;4974307;28;20042;-82
2023/08/22 00:03:18;;;;;;;9.35;6.30;;;16.80;99.90;;;;;;4962364;28;20046;-82
2023/08/22 00:05:43;;;;;;;8.52;6.93;;;16.80;99.90;;;;;;4977457;28;20038;-82
2023/08/22 00:08:09;;;;;;;7.82;6.28;;;16.80;99.90;;;;;;4976704;28;20143;-82
2023/08/22 00:10:36;;;;;;;7.40;5.18;;;16.80;99.90;;;;;;4957314;28;20111;-82
2023/08/22 00:13:02;;;;;;;7.38;5.18;;;16.80;99.90;;;;;;4974302;28;20082;-83
2023/08/22 00:15:28;;;;;;;9.25;6.57;;;16.80;99.90;;;;;;4977783;28;20041;-83
2023/08/22 00:17:54;;;;;;;8.80;6.93;;;16.90;99.90;;;;;;4959552;28;20046;-82
2023/08/22 00:20:20;;;;;;;7.28;6.15;;;16.90;99.90;;;;;;4958966;28;20042;-82
2023/08/22 00:22:46;;;;;;;7.63;5.85;;;16.80;99.90;;;;;;4977170;28;20046;-83
2023/08/22 00:25:14;;;;;;;8.48;6.57;;;16.70;99.90;;;;;;4960267;28;20050;-82
2023/08/22 00:27:40;;;;;;;10.65;7.05;;;16.70;99.90;;;;;;4956465;28;20042;-82
2023/08/22 00:30:07;;;;;;;9.20;7.00;;;16.70;99.90;;;;;;4956299;28;20046;-82
2023/08/22 00:32:34;;;;;;;10.65;7.28;;;16.70;99.90;;;;;;4959244;28;20027;-82
2023/08/22 00:35:00;;;;;;;11.65;7.05;;;16.70;99.90;;;;;;4975158;28;20042;-83
2023/08/22 00:37:26;;;;;;;7.75;6.05;;;16.70;99.90;;;;;;4962444;28;20101;-82
2023/08/22 00:39:52;;;;;;;9.95;5.47;;;16.70;99.90;;;;;;4955774;28;20509;-82
2023/08/22 00:42:18;;;;;;;10.70;6.72;;;16.70;99.90;;;;;;4976032;28;20042;-82
2023/08/22 00:44:43;;;;;;;8.27;6.60;;;16.70;99.90;;;;;;4944459;28;20474;-82
2023/08/22 00:47:09;;;;;;;8.43;6.30;;;16.70;99.90;;;;;;4958788;28;20046;-83
2023/08/22 00:49:35;;;;;;;8.75;6.32;;;16.60;99.90;;;;;;4962305;28;20626;-82
2023/08/22 00:52:02;;;;;;;9.95;7.30;;;16.50;99.90;;;;;;4958807;28;20125;-82
2023/08/22 00:54:29;;;;;;;7.25;6.10;;;16.50;99.90;;;;;;4961648;28;20129;-82
2023/08/22 00:56:56;;;;;;;10.45;6.82;;;16.60;99.90;;;;;;4974029;28;20047;-82
2023/08/22 00:59:25;;;;;;;9.52;7.30;;;16.60;99.90;;;;;;4958479;28;20746;-82
2023/08/22 01:01:51;;;;;;;9.65;7.03;;;16.60;99.90;;;;;;4959666;28;20042;-82
2023/08/22 01:04:20;;;;;;;10.98;7.57;;;16.60;99.90;;;;;;4960889;28;20048;-82
2023/08/22 01:06:55;;;;;;;12.00;6.78;;;16.70;99.90;;;;;;4974873;28;20054;-82
2023/08/22 01:09:34;;;;;;;10.95;8.02;;;16.50;99.90;;;;;;4956811;28;20484;-83
2023/08/22 01:12:07;;;;;;;9.65;7.30;;;16.50;99.90;;;;;;4958179;28;20461;-82
2023/08/22 01:14:39;;;;;;;7.57;6.35;;;16.50;99.90;;;;;;4961190;28;20089;-82
2023/08/22 01:17:06;;;;;;;7.60;6.30;;;16.50;99.90;;;;;;4959103;28;20046;-82
2023/08/22 01:19:32;;;;;;;8.02;7.03;;;16.50;99.90;;;;;;4956040;28;20093;-82
2023/08/22 01:21:58;;;;;;;13.38;8.00;;;16.50;99.90;;;;;;4960733;28;20543;-82
2023/08/22 01:24:23;;;;;;;12.57;7.90;;;16.60;99.90;;;;;;4957802;28;20611;-81
2023/08/22 01:26:49;;;;;;;9.63;6.88;;;16.40;99.90;;;;;;4955640;28;20513;-82
2023/08/22 01:29:27;;;;;;;11.73;6.78;;;16.40;99.90;;;;;;4977070;28;20042;-82
2023/08/22 01:32:07;;;;;;;10.30;7.10;;;16.40;99.90;;;;;;4957838;28;20090;-82
2023/08/22 01:34:36;;;;;;;9.52;7.15;;;16.40;99.90;;;;;;4957027;28;20070;-82
2023/08/22 01:37:03;;;;;;;10.38;7.03;;;16.30;99.90;;;;;;4955615;28;20042;-82
2023/08/22 01:39:30;;;;;;;10.80;6.60;;;16.30;99.90;;;;;;4959384;28;20042;-83
2023/08/22 01:41:57;;;;;;;12.43;6.97;;;16.40;99.90;;;;;;4958669;28;20771;-82
2023/08/22 01:44:24;;;;;;;11.90;6.75;;;16.40;99.90;;;;;;4938567;28;20073;-82
2023/08/22 01:46:49;;;;;;;8.15;6.22;;;16.40;99.90;;;;;;4962493;28;20050;-82
2023/08/22 01:49:15;;;;;;;9.73;6.53;;;16.40;99.90;;;;;;4959883;28;20599;-83
2023/08/22 01:51:41;;;;;;;9.63;7.90;;;16.30;99.90;;;;;;4959029;28;20048;-83
2023/08/22 01:54:07;;;;;;;11.38;7.50;;;16.30;99.90;;;;;;4960383;28;20180;-82
2023/08/22 01:56:32;;;;;;;11.00;7.35;;;16.30;99.90;;;;;;4956098;28;20074;-82
2023/08/22 01:58:59;;;;;;;7.53;6.57;;;16.30;99.90;;;;;;4974092;28;20052;-83
2023/08/22 02:01:24;;;;;;;11.65;7.55;;;16.10;99.90;;;;;;4972395;28;20122;-82
2023/08/22 02:03:50;;;;;;;10.25;7.55;;;16.10;99.90;;;;;;4959290;28;20132;-82
2023/08/22 02:06:16;;;;;;;9.60;6.85;;;16.10;99.90;;;;;;4955312;28;20229;-83
2023/08/22 02:08:44;;;;;;;14.23;8.57;;;16.10;99.90;;;;;;4959482;28;20054;-82
2023/08/22 02:11:10;;;;;;;13.43;8.32;;;16.10;99.90;;;;;;4943876;28;20074;-83
2023/08/22 02:13:36;;;;;;;10.65;8.40;;;16.10;99.90;;;;;;4940361;28;20144;-82
2023/08/22 02:16:02;;;;;;;13.07;8.45;;;16.10;99.90;;;;;;4976960;28;20115;-82
2023/08/22 02:18:27;;;;;;;12.68;8.77;;;16.00;99.90;;;;;;4959605;28;20655;-82
2023/08/22 02:20:55;;;;;;;10.43;7.78;;;16.00;99.90;;;;;;4957024;28;20042;-82
2023/08/22 02:23:20;;;;;;;11.60;8.95;;;15.90;99.90;;;;;;4959162;28;20485;-82
2023/08/22 02:25:49;;;;;;;8.07;6.50;;;16.00;99.90;;;;;;4957257;28;20026;-82
2023/08/22 02:28:14;;;;;;;15.23;8.18;;;15.80;99.90;;;;;;4959103;28;20042;-82
2023/08/22 02:30:40;;;;;;;9.98;6.95;;;15.80;99.90;;;;;;4974829;28;20515;-82
2023/08/22 02:33:09;;;;;;;12.00;8.07;;;15.70;99.90;;;;;;4958643;28;20472;-81
2023/08/22 02:35:34;;;;;;;14.00;7.53;;;15.70;99.90;;;;;;4974382;28;20042;-82
2023/08/22 02:38:00;;;;;;;166.25;8.70;;;15.70;99.90;;;;;;4958178;28;20489;-82
2023/08/22 02:40:26;;;;;;;54.00;7.45;;;15.50;99.90;;;;;;4956125;28;20117;-82
2023/08/22 02:42:52;;;;;;;5.65;5.05;;;15.50;99.90;;;;;;4943370;28;20066;-82
2023/08/22 02:45:18;;;;;;;9.50;6.68;;;15.40;99.90;;;;;;4954634;28;20054;-82
2023/08/22 02:47:44;;;;;;;6.65;5.75;;;15.40;99.90;;;;;;4958892;28;20374;-82
2023/08/22 02:50:10;;;;;;;6.80;5.30;;;15.40;99.90;;;;;;4971613;28;20445;-82
2023/08/22 02:52:35;;;;;;;7.07;5.53;;;15.40;99.90;;;;;;4959254;28;20501;-82
2023/08/22 02:55:01;;;;;;;5.60;4.53;;;15.30;99.90;;;;;;4958863;28;20065;-82
2023/08/22 02:57:27;;;;;;;12.07;7.80;;;15.30;99.90;;;;;;4956206;28;20196;-82
2023/08/22 02:59:53;;;;;;;13.23;7.97;;;15.30;99.90;;;;;;4942876;28;20228;-81
2023/08/22 03:02:19;;;;;;;7.32;5.43;;;15.40;99.90;;;;;;4943748;28;20061;-82
2023/08/22 03:04:44;;;;;;;11.93;7.30;;;15.20;99.90;;;;;;4972933;28;20540;-82
2023/08/22 03:07:10;;;;;;;8.68;7.30;;;15.20;99.90;;;;;;4956846;28;20101;-82
2023/08/22 03:09:39;;;;;;;9.48;6.45;;;15.20;99.90;;;;;;4971215;28;20046;-82
2023/08/22 03:12:05;;;;;;;8.23;7.32;;;15.10;99.90;;;;;;4972517;28;20523;-81
2023/08/22 03:14:31;;;;;;;9.98;8.23;;;15.10;99.90;;;;;;4957451;28;20138;-82
2023/08/22 03:16:56;;;;;;;11.52;7.50;;;15.10;99.90;;;;;;4944146;28;20420;-82
2023/08/22 03:19:22;;;;;;;11.40;8.07;;;15.10;99.90;;;;;;4957879;28;20046;-81
2023/08/22 03:21:48;;;;;;;8.18;6.53;;;15.00;99.90;;;;;;4976197;28;20038;-81
2023/08/22 03:24:13;;;;;;;8.48;6.32;;;15.00;99.90;;;;;;4975363;28;20037;-82
2023/08/22 03:26:39;;;;;;;9.50;6.88;;;15.00;99.90;;;;;;4955381;28;20379;-82
2023/08/22 03:29:05;;;;;;;14.02;8.40;;;14.90;99.90;;;;;;4956361;28;20211;-81
2023/08/22 03:31:30;;;;;;;10.25;8.02;;;14.90;99.90;;;;;;4956597;28;20041;-81
2023/08/22 03:33:56;;;;;;;12.32;8.50;;;14.90;99.90;;;;;;4956061;28;20539;-81
2023/08/22 03:36:22;;;;;;;9.15;7.30;;;14.80;99.90;;;;;;4973482;28;20046;-81
2023/08/22 03:38:51;;;;;;;12.02;8.45;;;14.80;99.90;;;;;;4972545;28;20043;-81
2023/08/22 03:41:20;;;;;;;11.35;8.95;;;14.80;99.90;;;;;;4956595;28;20228;-82
2023/08/22 03:43:46;;;;;;;10.98;7.55;;;14.80;99.90;;;;;;4957398;28;20034;-81
2023/08/22 03:46:12;;;;;;;9.23;7.80;;;14.80;99.90;;;;;;4957917;28;20045;-81
2023/08/22 03:48:37;;;;;;;11.27;7.80;;;14.70;99.90;;;;;;4973170;28;20046;-81
2023/08/22 03:51:07;;;;;;;10.93;7.70;;;14.70;99.90;;;;;;4957098;28;20042;-81
2023/08/22 03:53:34;;;;;;;12.82;8.48;;;14.60;99.90;;;;;;4958677;28;20035;-81
2023/08/22 03:56:00;;;;;;;10.85;7.95;;;14.60;99.90;;;;;;4956512;28;20031;-81
2023/08/22 03:58:29;;;;;;;9.02;7.13;;;14.60;99.90;;;;;;4956437;28;20053;-81
2023/08/22 04:00:55;;;;;;;10.88;6.95;;;14.50;99.90;;;;;;4971597;28;20046;-81
2023/08/22 04:03:20;;;;;;;9.75;8.02;;;14.50;99.90;;;;;;4956889;28;20487;-81
2023/08/22 04:05:46;;;;;;;12.80;8.73;;;14.50;99.90;;;;;;4973506;28;20092;-81
2023/08/22 04:08:12;;;;;;;12.23;8.25;;;14.50;99.90;;;;;;4955398;28;20080;-81
2023/08/22 04:10:37;;;;;;;12.05;7.60;;;14.50;99.90;;;;;;4958854;28;20034;-81
2023/08/22 04:13:03;;;;;;;9.95;7.78;;;14.40;99.90;;;;;;4963900;28;20644;-81
2023/08/22 04:15:29;;;;;;;89.32;6.38;;;14.40;99.90;;;;;;4943805;28;20045;-81
2023/08/22 04:17:54;;;;;;;65.40;6.10;;;14.40;99.90;;;;;;4962219;28;20038;-81
2023/08/22 04:20:20;;;;;;;13.40;3.10;;;14.30;99.90;;;;;;4941775;28;20458;-81
2023/08/22 04:22:46;;;;;;;4.80;3.60;;;14.30;99.90;;;;;;4962682;28;20048;-81
2023/08/22 04:25:12;;;;;;;6.13;4.00;;;14.30;99.90;;;;;;4957292;28;20083;-81
2023/08/22 04:27:38;;;;;;;8.82;6.00;;;14.20;99.90;;;;;;4975606;28;20061;-81
2023/08/22 04:30:05;;;;;;;8.85;6.63;;;14.20;99.90;;;;;;4959375;28;20053;-81
2023/08/22 04:32:31;;;;;;;8.52;6.13;;;14.20;99.90;;;;;;4961124;28;20078;-81
2023/08/22 04:34:57;;;;;;;8.27;6.97;;;14.20;99.90;;;;;;4959592;28;20040;-81
2023/08/22 04:37:24;;;;;;;8.00;6.82;;;14.20;99.90;;;;;;4944571;28;20076;-81
2023/08/22 04:39:49;;;;;;;7.03;4.25;;;14.10;99.90;;;;;;4944392;28;20480;-81
2023/08/22 04:42:15;;;;;;;4.63;3.75;;;14.10;99.90;;;;;;4959336;28;20104;-81
2023/08/22 04:44:41;;;;;;;8.40;3.80;;;14.00;99.90;;;;;;4958150;28;20050;-81
2023/08/22 04:47:06;;;;;;;6.45;5.10;;;14.10;99.90;;;;;;4960695;28;20045;-81
2023/08/22 04:49:32;;;;;;;5.60;4.95;;;14.20;99.90;;;;;;4956357;28;20133;-81
2023/08/22 04:51:58;;;;;;;9.07;6.47;;;14.10;99.90;;;;;;4963001;28;20552;-81
2023/08/22 04:54:24;;;;;;;8.95;6.82;;;14.20;99.90;;;;;;4973451;28;20112;-81
2023/08/22 04:56:53;;;;;;;9.32;6.03;;;14.20;99.90;;;;;;4976236;28;20042;-81
2023/08/22 04:59:18;;;;;;;8.25;6.22;;;14.10;99.90;;;;;;4956677;28;20050;-81
2023/08/22 05:01:44;;;;;;;55.80;7.43;;;14.10;99.90;;;;;;4963209;28;20043;-81
2023/08/22 05:04:10;;;;;;;9.40;6.88;;;14.20;99.90;;;;;;4955583;28;20068;-81
2023/08/22 05:06:35;;;;;;;177.65;9.73;;;14.30;99.90;;;;;;4954549;28;20058;-81
2023/08/22 05:09:02;;;;;;;13.35;3.90;;;14.20;99.90;;;;;;4959882;28;20096;-81
2023/08/22 05:11:28;;;;;;;4.53;3.42;;;14.10;99.90;;;;;;4958644;28;20038;-81
2023/08/22 05:14:03;;;;;;;3.13;2.83;;;14.10;99.90;;;;;;4975931;28;20311;-81
2023/08/22 05:16:29;;;;;;;3.58;3.28;;;14.00;99.90;;;;;;4956908;28;20040;-81
2023/08/22 05:18:55;;;;;;;6.53;4.03;;;14.10;99.90;;;;;;4940245;28;20049;-81
2023/08/22 05:21:21;;;;;;;5.10;4.03;;;14.10;99.90;;;;;;4958458;28;20377;-81
2023/08/22 05:23:47;;;;;;;6.00;4.32;;;14.20;99.90;;;;;;4957704;28;20050;-81
2023/08/22 05:26:13;;;;;;;3.40;3.10;;;14.30;99.90;;;;;;4959379;28;20045;-80
2023/08/22 05:28:39;;;;;;;5.03;4.10;;;14.30;99.90;;;;;;4958184;28;20410;-81
2023/08/22 05:31:04;;;;;;;6.07;4.50;;;14.30;99.90;;;;;;4962692;28;20121;-81
2023/08/22 05:33:30;;;;;;;8.65;6.43;;;14.50;99.90;;;;;;4955395;28;20363;-81
2023/08/22 05:35:56;;;;;;;5.30;3.03;;;14.60;99.90;;;;;;4957418;28;20513;-80
2023/08/22 05:38:21;;;;;;;4.45;3.17;;;14.50;99.90;;;;;;4958721;28;20128;-81
2023/08/22 05:40:47;;;;;;;9.90;5.80;;;14.70;99.90;;;;;;4940924;28;20046;-80
2023/08/22 05:43:13;;;;;;;7.43;4.93;;;14.90;99.90;;;;;;4955871;28;20042;-80
2023/08/22 05:45:38;;;;;;;5.10;3.75;;;15.00;99.90;;;;;;4959363;28;20046;-80
2023/08/22 05:48:04;;;;;;;5.50;4.20;;;15.10;99.90;;;;;;4944346;28;20162;-81
2023/08/22 05:50:30;;;;;;;5.45;4.53;;;15.30;99.90;;;;;;4955944;28;20035;-81
2023/08/22 05:52:56;;;;;;;7.57;6.10;;;15.40;99.90;;;;;;4940875;28;20081;-80
2023/08/22 05:55:22;;;;;;;9.77;7.18;;;15.50;99.90;;;;;;4941578;28;20355;-80
2023/08/22 05:57:47;;;;;;;10.45;6.70;;;15.60;99.90;;;;;;4956527;28;20121;-80
2023/08/22 06:00:13;;;;;;;8.38;6.32;;;15.70;99.90;;;;;;4955646;28;20328;-80
2023/08/22 06:02:39;;;;;;;9.18;7.20;;;15.90;99.90;;;;;;4973025;28;20077;-80
2023/08/22 06:05:06;;;;;;;12.15;7.30;;;16.10;99.90;;;;;;4975682;28;20074;-80
2023/08/22 06:07:32;;;;;;;13.13;7.97;;;16.30;99.90;;;;;;4942935;28;20055;-80
2023/08/22 06:09:58;;;;;;;13.63;8.95;;;16.30;99.90;;;;;;4957524;28;20041;-81
2023/08/22 06:12:24;;;;;;;16.30;9.52;;;16.40;99.90;;;;;;4962003;28;20087;-80
2023/08/22 06:14:50;;;;;;;14.35;10.05;;;16.60;99.90;;;;;;4939946;28;20042;-80
2023/08/22 06:17:16;;;;;;;15.77;9.32;;;16.70;99.90;;;;;;4943505;28;20050;-80
2023/08/22 06:19:41;;;;;;;13.75;10.00;;;16.80;99.90;;;;;;4973681;28;20041;-80
2023/08/22 06:22:07;;;;;;;16.70;9.15;;;16.90;99.90;;;;;;4956849;28;20498;-80
2023/08/22 06:24:33;;;;;;;13.88;9.02;;;17.00;99.90;;;;;;4939558;28;20069;-81
2023/08/22 06:26:58;;;;;;;14.23;9.02;;;17.10;99.90;;;;;;4955156;28;20380;-80
2023/08/22 06:29:24;;;;;;;12.07;8.45;;;17.10;99.90;;;;;;4959193;28;20073;-80
2023/08/22 06:31:49;;;;;;;14.00;8.68;;;17.20;99.90;;;;;;4973046;28;20264;-81
2023/08/22 06:34:15;;;;;;;12.75;8.40;;;17.40;99.90;;;;;;4943329;28;20117;-80
2023/08/22 06:36:41;;;;;;;12.90;8.13;;;17.60;99.90;;;;;;4946870;28;20046;-80
2023/08/22 06:39:06;;;;;;;14.57;8.18;;;17.70;99.90;;;;;;4959558;28;20042;-79
2023/08/22 06:41:32;;;;;;;11.73;8.13;;;17.90;99.90;;;;;;4975478;28;20046;-80
2023/08/22 06:44:00;;;;;;;12.82;8.13;;;18.10;99.90;;;;;;4974792;28;20045;-81
2023/08/22 06:46:29;;;;;;;9.63;7.25;;;18.30;99.90;;;;;;4959232;28;20182;-81
2023/08/22 06:48:54;;;;;;;10.48;7.88;;;18.50;99.90;;;;;;4974297;28;20509;-80
2023/08/22 06:51:20;;;;;;;11.90;7.30;;;18.70;99.90;;;;;;4957410;28;20045;-80
2023/08/22 06:53:47;;;;;;;10.45;6.63;;;18.90;99.90;;;;;;4954866;28;20085;-80
2023/08/22 06:56:12;;;;;;;7.82;6.13;;;19.00;99.90;;;;;;4956909;28;20259;-81
2023/08/22 06:58:38;;;;;;;11.90;5.97;;;19.00;99.90;;;;;;4958009;28;20253;-80
2023/08/22 07:01:06;;;;;;;10.23;6.05;;;19.20;99.90;;;;;;4960728;28;20046;-80
2023/08/22 07:03:31;;;;;;;9.68;5.82;;;19.30;99.90;;;;;;4954828;28;20571;-81
2023/08/22 07:05:57;;;;;;;9.57;5.75;;;19.20;99.90;;;;;;4971217;28;20030;-81
2023/08/22 07:08:22;;;;;;;9.35;5.97;;;19.20;99.90;;;;;;4956288;28;20615;-80
2023/08/22 07:10:48;;;;;;;10.65;6.05;;;19.30;99.90;;;;;;4954799;28;20126;-80
2023/08/22 07:13:18;;;;;;;9.13;5.88;;;19.40;99.90;;;;;;4959576;28;20129;-80
2023/08/22 07:15:46;;;;;;;10.63;7.07;;;19.40;99.90;;;;;;4956322;28;20039;-80
2023/08/22 07:18:12;;;;;;;8.30;6.03;;;19.50;99.90;;;;;;4954536;28;20050;-81
2023/08/22 07:20:37;;;;;;;10.35;6.40;;;19.70;99.90;;;;;;4954457;28;20042;-81
2023/08/22 07:23:03;;;;;;;10.10;6.18;;;19.80;99.90;;;;;;4960043;28;20042;-81
2023/08/22 07:25:29;;;;;;;8.52;5.82;;;19.90;99.90;;;;;;4941699;28;20811;-81
2023/08/22 07:27:54;;;;;;;11.30;7.35;;;20.00;99.90;;;;;;4975233;28;20505;-81
2023/08/22 07:30:20;;;;;;;8.93;5.63;;;20.20;99.90;;;;;;4956402;28;20157;-81
2023/08/22 07:32:46;;;;;;;10.93;5.78;;;20.40;99.90;;;;;;4976532;28;20041;-81
2023/08/22 07:35:11;;;;;;;9.48;5.90;;;20.40;99.90;;;;;;4939188;28;20121;-81
2023/08/22 07:37:40;;;;;;;10.18;5.70;;;20.70;99.90;;;;;;4958074;28;20061;-81
2023/08/22 07:40:06;;;;;;;9.63;5.32;;;20.70;99.90;;;;;;4943792;28;20129;-81
2023/08/22 07:42:34;;;;;;;8.50;5.03;;;20.70;99.90;;;;;;4971874;28;20042;-81
2023/08/22 07:45:00;;;;;;;7.50;4.95;;;20.70;99.90;;;;;;4960572;28;20140;-81
2023/08/22 07:47:26;;;;;;;8.35;4.80;;;20.90;99.90;;;;;;4960128;28;20145;-81
2023/08/22 07:49:52;;;;;;;7.43;4.90;;;20.80;99.90;;;;;;4961017;28;20173;-81
2023/08/22 07:52:18;;;;;;;9.20;4.80;;;20.80;99.90;;;;;;4961569;28;20042;-81
2023/08/22 07:54:43;;;;;;;9.15;5.50;;;20.80;99.90;;;;;;4955138;28;20625;-81
2023/08/22 07:57:09;;;;;;;10.32;5.50;;;20.80;99.90;;;;;;4960976;28;20096;-81
2023/08/22 07:59:35;;;;;;;6.45;4.43;;;20.70;99.90;;;;;;4944844;28;20038;-82
2023/08/22 08:02:00;;;;;;;9.32;5.25;;;20.80;99.90;;;;;;4959751;28;20129;-81
2023/08/22 08:04:26;;;;;;;8.18;4.40;;;20.80;99.90;;;;;;4956782;28;20043;-81
2023/08/22 08:06:52;;;;;;;7.30;4.30;;;20.80;99.90;;;;;;4960758;28;20109;-82
2023/08/22 08:09:17;;;;;;;6.45;3.70;;;20.70;99.90;;;;;;4959296;28;20078;-82
2023/08/22 08:11:43;;;;;;;6.97;3.65;;;20.60;99.90;;;;;;4942986;28;20228;-81
2023/08/22 08:14:09;;;;;;;4.65;3.10;;;20.60;99.90;;;;;;4958048;28;20449;-81
2023/08/22 08:16:35;;;;;;;5.30;3.05;;;20.60;99.90;;;;;;4963033;28;20093;-82
2023/08/22 08:19:01;;;;;;;7.45;2.80;;;20.70;99.90;;;;;;4945195;28;20044;-81
2023/08/22 08:21:27;;;;;;;3.55;2.35;;;20.80;99.90;;;;;;4955634;28;20305;-81
2023/08/22 08:23:52;;;;;;;6.07;2.55;;;20.90;99.90;;;;;;4944419;28;20129;-82
2023/08/22 08:26:18;;;;;;;5.82;2.40;;;21.00;99.90;;;;;;4960177;28;20058;-82
2023/08/22 08:28:44;;;;;;;4.43;2.30;;;21.20;99.90;;;;;;4955871;28;20371;-82
2023/08/22 08:31:10;;;;;;;4.35;2.10;;;21.40;99.90;;;;;;4976005;28;20042;-82
2023/08/22 08:33:36;;;;;;;7.50;2.63;;;21.50;99.90;;;;;;4960299;28;20121;-81
2023/08/22 08:36:04;;;;;;;4.97;2.60;;;21.70;99.90;;;;;;4962586;28;20129;-82
2023/08/22 08:38:30;;;;;;;5.80;2.72;;;21.80;99.90;;;;;;4961157;28;20404;-81
2023/08/22 08:41:00;;;;;;;6.68;2.60;;;21.60;99.90;;;;;;4944018;28;20097;-81
2023/08/22 08:43:25;;;;;;;4.30;2.22;;;21.80;99.90;;;;;;4944112;28;20053;-82
2023/08/22 08:45:51;;;;;;;4.68;2.70;;;22.00;99.90;;;;;;4974756;28;20038;-82
2023/08/22 08:48:22;;;;;;;4.22;2.30;;;22.00;99.90;;;;;;4960423;28;20433;-82
2023/08/22 08:50:50;;;;;;;6.18;2.60;;;22.20;99.90;;;;;;4959578;28;20482;-82
2023/08/22 08:53:17;;;;;;;5.13;2.20;;;22.50;99.90;;;;;;4946650;28;20038;-81
2023/08/22 08:55:45;;;;;;;2.65;2.00;;;22.50;99.90;;;;;;4960490;28;20431;-81
2023/08/22 08:58:11;;;;;;;4.10;1.63;;;22.40;99.90;;;;;;4942697;28;20061;-82
2023/08/22 09:00:37;;;;;;;3.60;2.00;;;22.50;99.90;;;;;;4961453;28;20046;-82
2023/08/22 09:03:04;;;;;;;4.30;1.60;;;22.80;99.90;;;;;;4960222;28;20501;-81
2023/08/22 09:05:30;;;;;;;3.00;1.70;;;23.00;99.90;;;;;;4977324;28;20129;-82
2023/08/22 09:07:56;;;;;;;2.70;1.33;;;23.10;99.90;;;;;;4959371;28;20147;-82
2023/08/22 09:10:35;;;;;;;3.30;1.27;;;23.40;99.90;;;;;;4942824;28;20114;-83
2023/08/22 09:13:04;;;;;;;2.75;1.33;;;23.50;99.90;;;;;;4959413;28;20054;-82
2023/08/22 09:15:30;;;;;;;2.72;1.20;;;23.80;99.90;;;;;;4960600;28;20434;-81
2023/08/22 09:17:57;;;;;;;2.17;1.33;;;23.90;99.90;;;;;;4959038;28;20050;-82
2023/08/22 09:20:24;;;;;;;3.65;1.70;;;24.10;99.90;;;;;;4948056;28;20081;-82
2023/08/22 09:22:49;;;;;;;1.77;1.25;;;23.90;99.90;;;;;;4960536;28;20038;-82
2023/08/22 09:25:16;;;;;;;4.55;2.03;;;24.10;99.90;;;;;;4946808;28;20043;-82
2023/08/22 09:27:42;;;;;;;1.65;1.30;;;24.10;99.90;;;;;;4974348;28;20518;-82
2023/08/22 09:30:08;;;;;;;2.95;1.63;;;24.10;99.90;;;;;;4944680;28;20041;-82
2023/08/22 09:32:34;;;;;;;3.20;1.20;;;23.90;99.90;;;;;;4960535;28;20227;-82
2023/08/22 09:35:03;;;;;;;3.28;1.30;;;23.80;99.90;;;;;;4958798;28;20132;-82
2023/08/22 09:37:36;;;;;;;1.83;1.05;;;23.60;99.90;;;;;;4945481;28;20476;-82
2023/08/22 09:40:08;;;;;;;3.20;2.00;;;23.30;99.90;;;;;;4958496;28;20073;-82
2023/08/22 09:42:38;;;;;;;4.65;1.90;;;23.10;99.90;;;;;;4944308;28;20093;-82
2023/08/22 09:45:05;;;;;;;5.88;2.20;;;23.20;99.90;;;;;;4976735;28;20237;-82
2023/08/22 09:47:31;;;;;;;4.90;2.05;;;23.40;99.90;;;;;;4943689;28;20569;-82
2023/08/22 09:50:05;;;;;;;3.20;2.00;;;23.70;99.90;;;;;;4958377;28;20120;-82
2023/08/22 09:52:31;;;;;;;4.18;2.35;;;23.80;99.90;;;;;;4961013;28;20057;-82
2023/08/22 09:54:57;;;;;;;5.88;2.10;;;23.80;99.90;;;;;;4956636;28;20038;-82
2023/08/22 09:57:25;;;;;;;4.85;2.42;;;24.00;99.90;;;;;;4974916;28;20128;-82
2023/08/22 09:59:51;;;;;;;5.10;2.13;;;24.40;99.90;;;;;;4955943;28;20034;-82
2023/08/22 10:02:21;;;;;;;4.35;2.67;;;24.60;99.90;;;;;;4960436;28;20046;-82
2023/08/22 10:04:47;;;;;;;3.97;2.75;;;24.70;99.90;;;;;;4959553;28;20321;-82
2023/08/22 10:07:13;;;;;;;6.57;3.15;;;24.50;99.90;;;;;;4944847;28;20042;-82
2023/08/22 10:09:40;;;;;;;5.70;3.05;;;24.60;99.90;;;;;;4958732;28;20096;-82
2023/08/22 10:12:09;;;;;;;5.28;3.40;;;24.70;99.90;;;;;;4976021;28;20038;-82
2023/08/22 10:14:48;;;;;;;5.15;2.97;;;24.60;99.90;;;;;;4958671;28;20101;-82
2023/08/22 10:17:15;;;;;;;6.78;3.60;;;24.20;99.90;;;;;;4976614;28;20133;-82
2023/08/22 10:19:44;;;;;;;6.45;3.83;;;24.20;99.90;;;;;;4944893;28;20050;-82
2023/08/22 10:22:12;;;;;;;5.55;3.45;;;24.30;99.90;;;;;;4974904;28;20038;-82
2023/08/22 10:24:38;;;;;;;7.28;3.55;;;24.70;99.90;;;;;;4943677;28;20635;-82
2023/08/22 10:27:05;;;;;;;7.03;3.90;;;24.30;99.90;;;;;;4958162;28;20042;-81
2023/08/22 10:29:45;;;;;;;7.35;3.85;;;24.10;99.90;;;;;;4955681;28;20439;-81
2023/08/22 10:32:10;;;;;;;6.60;4.20;;;24.10;99.90;;;;;;4975895;28;20038;-82
2023/08/22 10:34:39;;;;;;;7.30;4.32;;;24.60;99.90;;;;;;4973550;28;20046;-82
2023/08/22 10:37:25;;;;;;;5.53;3.40;;;24.60;99.90;;;;;;4972469;28;20130;-82
2023/08/22 10:39:52;;;;;;;7.28;3.90;;;24.50;99.90;;;;;;4958971;28;20064;-82
2023/08/22 10:42:28;;;;;;;8.15;3.85;;;24.80;99.90;;;;;;4959094;28;20104;-81
2023/08/22 10:44:56;;;;;;;5.88;3.60;;;24.70;99.90;;;;;;4970832;28;21165;-82
2023/08/22 10:47:27;;;;;;;4.32;3.00;;;24.70;99.90;;;;;;4956392;28;20260;-83
2023/08/22 10:49:57;;;;;;;10.13;3.50;;;24.70;99.90;;;;;;4957678;28;20038;-82
2023/08/22 10:52:37;;;;;;;7.50;2.90;;;24.70;99.90;;;;;;4978205;28;20042;-82
2023/08/22 10:55:03;;;;;;;4.80;3.08;;;25.00;99.90;;;;;;4942790;28;20038;-82
2023/08/22 10:57:31;;;;;;;3.70;2.67;;;25.00;99.90;;;;;;4941491;28;20038;-82
2023/08/22 11:00:00;;;;;;;5.75;2.85;;;25.30;99.90;;;;;;4957248;28;20066;-82
2023/08/22 11:02:30;;;;;;;3.20;2.30;;;25.60;99.90;;;;;;4943588;28;20046;-82
2023/08/22 11:05:01;;;;;;;4.75;2.20;;;25.30;99.90;;;;;;4959098;28;20076;-82
2023/08/22 11:07:28;;;;;;;3.15;2.13;;;25.20;99.90;;;;;;4954581;28;20184;-81
2023/08/22 11:09:54;;;;;;;2.35;1.67;;;25.20;99.90;;;;;;4954745;28;20038;-82
2023/08/22 11:12:25;;;;;;;5.50;1.60;;;25.30;99.90;;;;;;4969846;28;20038;-82
2023/08/22 11:14:52;;;;;;;3.58;1.80;;;25.60;99.90;;;;;;4954618;28;20279;-83
2023/08/22 11:17:20;;;;;;;4.25;2.10;;;25.80;99.90;;;;;;4958590;28;20556;-83
2023/08/22 11:19:51;;;;;;;5.05;1.88;;;25.70;99.90;;;;;;4959225;28;20045;-84
2023/08/22 11:22:17;;;;;;;5.00;1.67;;;26.00;99.90;;;;;;4942584;28;20130;-82
2023/08/22 11:24:48;;;;;;;2.65;1.40;;;26.10;99.90;;;;;;4956047;28;20181;-82
2023/08/22 11:27:14;;;;;;;3.40;1.70;;;25.90;99.90;;;;;;4967576;28;20113;-82
2023/08/22 11:29:44;;;;;;;3.03;1.60;;;25.90;99.90;;;;;;4958434;28;20545;-82
2023/08/22 11:32:22;;;;;;;1.60;1.10;;;26.10;99.90;;;;;;4974071;28;20042;-82
2023/08/22 11:34:54;;;;;;;3.35;1.25;;;26.00;99.90;;;;;;4973351;28;20042;-83
2023/08/22 11:37:20;;;;;;;2.67;1.30;;;26.40;99.90;;;;;;4957950;28;20095;-82
2023/08/22 11:39:50;;;;;;;1.83;1.15;;;26.30;99.90;;;;;;4972705;28;20047;-82
2023/08/22 11:42:17;;;;;;;3.30;1.20;;;26.60;99.90;;;;;;4940842;28;20140;-82
2023/08/22 11:44:51;;;;;;;3.35;1.27;;;26.20;99.90;;;;;;4958975;28;20062;-81
2023/08/22 11:47:17;;;;;;;3.05;1.30;;;25.90;99.90;;;;;;4958288;28;20170;-82
2023/08/22 11:49:42;;;;;;;4.00;1.45;;;26.00;99.90;;;;;;4959879;28;20122;-83
2023/08/22 11:52:09;;;;;;;3.90;1.50;;;26.40;99.90;;;;;;4958363;28;20258;-82
2023/08/22 11:54:45;;;;;;;2.50;1.13;;;26.10;99.90;;;;;;4957335;28;20043;-82
2023/08/22 11:57:12;;;;;;;3.17;1.35;;;26.80;99.90;;;;;;4959493;28;20038;-83
2023/08/22 11:59:42;;;;;;;1.58;1.05;;;26.70;99.90;;;;;;4956050;28;20400;-82
2023/08/22 12:02:10;;;;;;;2.28;0.90;;;26.70;99.90;;;;;;4958420;28;20134;-82
2023/08/22 12:04:43;;;;;;;2.10;0.77;;;26.70;1.00;;;;;;4959117;28;20126;-82
2023/08/22 12:07:09;;;;;;;0.90;0.80;;;27.00;99.90;;;;;;4972397;28;20247;-81
2023/08/22 12:09:35;;;;;;;2.88;0.88;;;27.10;99.90;;;;;;4971864;28;20058;-82
2023/08/22 12:12:11;;;;;;;3.33;0.90;;;27.30;99.90;;;;;;4958297;28;20039;-82
2023/08/22 12:14:37;;;;;;;2.75;0.98;;;27.40;99.90;;;;;;4957409;28;20148;-82
2023/08/22 12:17:02;;;;;;;2.28;0.80;;;27.10;1.00;;;;;;4942699;28;20043;-83
2023/08/22 12:19:28;;;;;;;4.53;1.20;;;27.30;1.00;;;;;;4957340;28;20042;-82
2023/08/22 12:21:57;;;;;;;3.53;1.02;;;27.30;1.00;;;;;;4963316;28;20153;-82
2023/08/22 12:24:23;;;;;;;1.88;0.90;;;27.30;99.90;;;;;;4940754;28;20055;-82
2023/08/22 12:26:48;;;;;;;2.58;1.30;;;27.10;26.60;;;;;;4942134;28;20082;-82
2023/08/22 12:29:14;;;;;;;2.28;0.93;;;27.00;99.90;;;;;;4958323;28;20058;-82
2023/08/22 12:31:40;;;;;;;2.42;1.50;;;27.20;99.90;;;;;;4959169;28;20375;-81
2023/08/22 12:34:05;;;;;;;4.32;1.50;;;27.30;99.90;;;;;;4958037;28;20109;-81
2023/08/22 12:36:31;;;;;;;2.80;1.50;;;27.20;99.90;;;;;;4974883;28;20042;-82
2023/08/22 12:38:56;;;;;;;3.22;1.67;;;27.60;99.90;;;;;;4956652;28;20422;-82
2023/08/22 12:41:25;;;;;;;3.47;1.70;;;27.20;99.90;;;;;;4954915;28;20469;-82